Loachapoka, Alabama
Current Conditions -  °F | °C
As of 9:15 PM on Monday 20 Oct 2014 (Local Time) from KAUO Reporting Station
Clear Clear  
Wind Chill: 13°   Ceiling: Unl
Heat Index: 13°   Visibility: 10mi
Dew Point:   Wind: 3mph
Humidity: 77%   Direction: 340°NNW
Pressure: 30.06"   Gusts: NA
Location:  32.6°N, 85.59°W
Report Text: KAUO 210215Z AUTO 34003KT 10SM CLR 13/09 A3006 RMK AO1
Loading
Personal Weather Stations






























Interactive Weather Map
Tropical Storm Tracking
New forecast layout! Learn more

10-Day Weather Forecast

Advertisements
Track Severe Weather on mobile